createdAt,value
2023-01-29T00:01:28.043Z,6.90
2023-01-29T00:04:23.796Z,6.90
2023-01-29T00:07:39.255Z,7.40
2023-01-29T00:09:23.702Z,7.40
2023-01-29T00:12:19.924Z,7.30
2023-01-29T00:13:08.746Z,7.30
2023-01-29T00:14:25.323Z,7.30
2023-01-29T00:14:50.463Z,7.30
2023-01-29T00:16:18.726Z,7.30
2023-01-29T00:19:23.708Z,7.30
2023-01-29T00:21:50.613Z,7.20
2023-01-29T00:24:26.635Z,7.20
2023-01-29T00:27:14.690Z,7.30
2023-01-29T00:29:23.621Z,7.30
2023-01-29T00:33:12.471Z,7.30
2023-01-29T00:34:23.622Z,7.30
2023-01-29T00:38:57.612Z,7.60
2023-01-29T00:39:29.374Z,7.60
2023-01-29T00:41:15.760Z,10.30
2023-01-29T00:44:33.559Z,10.30
2023-01-29T00:49:23.895Z,21.60
2023-01-29T00:54:23.685Z,20.70
2023-01-29T00:59:23.583Z,9.50
2023-01-29T01:01:09.788Z,7.50
2023-01-29T01:04:23.523Z,7.50
2023-01-29T01:06:02.423Z,7.00
2023-01-29T01:08:53.548Z,7.00
2023-01-29T01:09:33.541Z,7.00
2023-01-29T01:14:13.318Z,8.10
2023-01-29T01:14:23.416Z,8.10
2023-01-29T01:19:23.777Z,6.80
2023-01-29T01:24:23.631Z,6.80
2023-01-29T01:26:20.339Z,6.80
2023-01-29T01:29:14.598Z,6.80
2023-01-29T01:29:23.699Z,6.80
2023-01-29T01:33:25.324Z,7.10
2023-01-29T01:34:26.068Z,7.10
2023-01-29T01:39:24.327Z,6.80
2023-01-29T01:44:45.404Z,6.40
2023-01-29T01:49:23.821Z,6.40
2023-01-29T01:52:23.420Z,7.50
2023-01-29T01:54:27.989Z,7.50
2023-01-29T01:59:23.528Z,6.50
2023-01-29T02:04:35.659Z,6.90
2023-01-29T02:07:04.543Z,6.20
2023-01-29T02:09:33.467Z,6.20
2023-01-29T02:11:55.419Z,6.80
2023-01-29T02:14:24.346Z,6.80
2023-01-29T02:19:35.567Z,6.60
2023-01-29T02:20:43.213Z,6.90
2023-01-29T02:24:43.536Z,6.70
2023-01-29T02:26:44.864Z,6.70
2023-01-29T02:29:34.364Z,6.70
2023-01-29T02:34:12.355Z,7.00
2023-01-29T02:34:43.157Z,7.90
2023-01-29T02:39:33.202Z,7.90
2023-01-29T02:41:25.039Z,8.40
2023-01-29T02:43:23.383Z,8.40
2023-01-29T02:44:31.923Z,8.40
2023-01-29T02:49:31.377Z,7.70
2023-01-29T02:54:29.691Z,8.00
2023-01-29T02:56:35.937Z,8.00
2023-01-29T02:59:28.872Z,8.60
2023-01-29T03:04:28.492Z,8.70
2023-01-29T03:09:27.349Z,8.40
2023-01-29T03:13:20.787Z,8.40
2023-01-29T03:14:40.550Z,7.90
2023-01-29T03:19:35.401Z,8.40
2023-01-29T03:24:41.521Z,8.40
2023-01-29T03:24:56.376Z,8.40
2023-01-29T03:27:47.189Z,8.40
2023-01-29T03:29:33.906Z,8.50
2023-01-29T03:34:33.909Z,8.00
2023-01-29T03:39:27.371Z,8.80
2023-01-29T03:44:32.624Z,8.60
2023-01-29T03:46:28.209Z,8.60
2023-01-29T03:49:38.252Z,8.40
2023-01-29T03:54:31.050Z,8.80
2023-01-29T03:59:34.924Z,8.10
2023-01-29T04:04:26.543Z,8.60
2023-01-29T04:09:29.883Z,8.20
2023-01-29T04:14:24.520Z,8.50
2023-01-29T04:15:25.291Z,8.50
2023-01-29T04:19:24.240Z,8.80
2023-01-29T04:20:58.877Z,8.80
2023-01-29T04:24:23.410Z,7.70
2023-01-29T04:29:37.200Z,7.90
2023-01-29T04:34:28.158Z,8.50
2023-01-29T04:39:29.747Z,8.00
2023-01-29T04:44:32.773Z,8.20
2023-01-29T04:46:18.156Z,8.20
2023-01-29T04:49:31.630Z,8.30
2023-01-29T04:49:46.076Z,8.30
2023-01-29T04:54:31.403Z,7.90
2023-01-29T04:59:30.169Z,7.40
2023-01-29T05:04:26.126Z,7.00
2023-01-29T05:09:24.909Z,8.40
2023-01-29T05:09:37.281Z,8.40
2023-01-29T05:14:07.995Z,7.50
2023-01-29T05:14:25.106Z,7.50
2023-01-29T05:19:23.408Z,8.70
2023-01-29T05:20:34.205Z,8.70
2023-01-29T05:24:25.468Z,8.00
2023-01-29T05:29:23.965Z,9.20
2023-01-29T05:31:59.854Z,9.20
2023-01-29T05:34:23.291Z,9.10
2023-01-29T05:39:23.405Z,9.20
2023-01-29T05:44:23.612Z,8.70
2023-01-29T05:49:23.347Z,9.10
2023-01-29T05:54:23.313Z,9.00
2023-01-29T05:59:23.706Z,8.80
2023-01-29T06:04:23.516Z,8.80
2023-01-29T06:09:23.576Z,9.60
2023-01-29T06:14:23.471Z,9.60
2023-01-29T06:15:14.495Z,9.60
2023-01-29T06:19:23.228Z,10.20
2023-01-29T06:21:27.423Z,10.20
2023-01-29T06:24:23.391Z,9.90
2023-01-29T06:27:49.556Z,10.10
2023-01-29T06:29:23.249Z,10.10
2023-01-29T06:29:29.263Z,10.10
2023-01-29T06:34:23.325Z,9.90
2023-01-29T06:39:23.646Z,10.20
2023-01-29T06:42:42.100Z,9.60
2023-01-29T06:44:23.232Z,9.60
2023-01-29T06:49:23.373Z,10.00
2023-01-29T06:52:35.214Z,9.60
2023-01-29T06:54:23.224Z,9.60
2023-01-29T06:54:45.173Z,9.60
2023-01-29T06:59:23.429Z,10.10
2023-01-29T07:04:23.427Z,10.70
2023-01-29T07:09:23.340Z,9.90
2023-01-29T07:10:32.168Z,9.90
2023-01-29T07:14:23.183Z,9.80
2023-01-29T07:19:23.509Z,10.50
2023-01-29T07:24:18.157Z,11.30
2023-01-29T07:24:23.775Z,11.30
2023-01-29T07:25:49.376Z,11.30
2023-01-29T07:29:23.315Z,11.30
2023-01-29T07:34:23.633Z,11.30
2023-01-29T07:39:23.286Z,11.20
2023-01-29T07:44:23.538Z,10.60
2023-01-29T07:46:18.272Z,10.60
2023-01-29T07:49:23.221Z,10.10
2023-01-29T07:54:23.416Z,11.00
2023-01-29T07:57:55.237Z,9.90
2023-01-29T07:59:23.351Z,9.90
2023-01-29T08:04:23.343Z,10.40
2023-01-29T08:06:54.866Z,10.60
2023-01-29T08:09:23.564Z,10.60
2023-01-29T08:14:23.196Z,10.10
2023-01-29T08:19:23.354Z,10.10
2023-01-29T08:23:23.324Z,9.60
2023-01-29T08:24:28.229Z,9.60
2023-01-29T08:26:10.029Z,9.60
2023-01-29T08:29:23.233Z,10.60
2023-01-29T08:29:49.096Z,10.60
2023-01-29T08:34:23.780Z,9.50
2023-01-29T08:39:23.294Z,9.80
2023-01-29T08:44:23.299Z,10.50
2023-01-29T08:49:23.708Z,9.30
2023-01-29T08:51:19.004Z,9.30
2023-01-29T08:54:23.319Z,8.80
2023-01-29T08:59:23.350Z,9.60
2023-01-29T09:04:23.753Z,9.20
2023-01-29T09:09:23.398Z,9.60
2023-01-29T09:14:23.179Z,8.60
2023-01-29T09:19:23.709Z,10.20
2023-01-29T09:19:24.237Z,10.20
2023-01-29T09:21:26.908Z,10.10
2023-01-29T09:24:23.079Z,10.10
2023-01-29T09:25:28.970Z,10.10
2023-01-29T09:29:23.074Z,10.50
2023-01-29T09:33:53.945Z,10.40
2023-01-29T09:34:24.867Z,10.40
2023-01-29T09:39:23.170Z,11.70
2023-01-29T09:40:34.549Z,11.70
2023-01-29T09:44:31.613Z,10.30
2023-01-29T09:49:28.454Z,9.60
2023-01-29T09:54:26.385Z,10.30
2023-01-29T09:59:26.370Z,12.10
2023-01-29T10:02:03.617Z,10.00
2023-01-29T10:04:42.999Z,10.00
2023-01-29T10:08:35.535Z,10.00
2023-01-29T10:09:40.882Z,10.00
2023-01-29T10:14:36.791Z,10.40
2023-01-29T10:19:42.262Z,10.50
2023-01-29T10:20:13.882Z,10.50
2023-01-29T10:24:34.518Z,10.60
2023-01-29T10:25:12.878Z,10.60
2023-01-29T10:29:25.777Z,10.40
2023-01-29T10:34:28.290Z,10.40
2023-01-29T10:39:25.506Z,11.80
2023-01-29T10:44:39.951Z,11.00
2023-01-29T10:47:30.276Z,11.20
2023-01-29T10:49:36.712Z,11.20
2023-01-29T10:54:35.248Z,11.10
2023-01-29T10:57:33.999Z,12.30
2023-01-29T10:59:36.520Z,12.30
2023-01-29T11:04:24.715Z,12.30
2023-01-29T11:14:29.140Z,11.50
2023-01-29T11:19:36.191Z,11.80
2023-01-29T11:22:26.906Z,11.70
2023-01-29T11:24:23.837Z,11.70
2023-01-29T11:26:46.267Z,11.90
2023-01-29T11:29:32.042Z,11.90
2023-01-29T11:34:26.661Z,12.10
2023-01-29T11:39:24.943Z,10.90
2023-01-29T11:44:28.514Z,11.20
2023-01-29T11:49:33.841Z,11.80
2023-01-29T11:49:51.769Z,11.80
2023-01-29T11:54:28.596Z,11.70
2023-01-29T11:56:41.565Z,12.30
2023-01-29T11:59:30.560Z,12.30
2023-01-29T12:04:25.412Z,12.10
2023-01-29T12:09:27.267Z,12.80
2023-01-29T12:14:28.183Z,12.80
2023-01-29T12:19:29.760Z,13.00
2023-01-29T12:22:47.851Z,13.40
2023-01-29T12:24:31.352Z,13.40
2023-01-29T12:29:32.471Z,12.60
2023-01-29T12:31:35.612Z,13.60
2023-01-29T12:34:28.665Z,13.60
2023-01-29T12:39:23.360Z,13.80
2023-01-29T12:42:40.598Z,14.80
2023-01-29T12:44:29.349Z,14.80
2023-01-29T12:49:26.968Z,13.10
2023-01-29T12:54:30.183Z,13.70
2023-01-29T12:58:23.313Z,13.70
2023-01-29T12:59:29.211Z,13.70
2023-01-29T13:01:15.975Z,14.00
2023-01-29T13:03:07.297Z,14.00
2023-01-29T13:04:31.271Z,14.70
2023-01-29T13:06:18.001Z,14.70
2023-01-29T13:09:28.875Z,15.30
2023-01-29T13:14:27.847Z,15.20
2023-01-29T13:15:38.629Z,15.20
2023-01-29T13:18:40.466Z,15.20
2023-01-29T13:19:27.779Z,15.60
2023-01-29T13:24:25.160Z,18.30
2023-01-29T13:29:30.744Z,17.00
2023-01-29T13:32:00.020Z,17.00
2023-01-29T13:34:27.449Z,17.80
2023-01-29T13:37:57.994Z,17.80
2023-01-29T13:39:26.518Z,17.40
2023-01-29T13:40:20.169Z,17.40
2023-01-29T13:42:53.157Z,17.40
2023-01-29T13:44:26.100Z,16.10
2023-01-29T13:49:27.159Z,17.00
2023-01-29T13:53:36.952Z,17.00
2023-01-29T13:54:25.988Z,17.90
2023-01-29T13:59:33.996Z,17.40
2023-01-29T14:04:25.779Z,17.50
2023-01-29T14:09:31.935Z,18.40
2023-01-29T14:12:35.421Z,18.40
2023-01-29T14:14:42.864Z,19.30
2023-01-29T14:19:23.478Z,20.10
2023-01-29T14:24:29.919Z,20.10
2023-01-29T14:26:48.819Z,20.10
2023-01-29T14:29:34.277Z,21.50
2023-01-29T14:30:05.417Z,21.50
2023-01-29T14:34:28.437Z,21.30
2023-01-29T14:37:58.717Z,21.30
2023-01-29T14:39:32.059Z,22.00
2023-01-29T14:42:23.793Z,22.00
2023-01-29T14:44:42.718Z,23.40
2023-01-29T14:45:27.396Z,23.40
2023-01-29T14:48:56.468Z,22.90
2023-01-29T14:49:47.248Z,22.90
2023-01-29T14:54:01.739Z,23.30
2023-01-29T14:54:27.309Z,23.30
2023-01-29T14:59:28.123Z,22.20
2023-01-29T15:00:20.489Z,22.20
2023-01-29T15:02:44.235Z,22.20
2023-01-29T15:03:18.011Z,22.20
2023-01-29T15:04:26.576Z,23.10
2023-01-29T15:14:28.215Z,23.20
2023-01-29T15:17:05.028Z,23.20
2023-01-29T15:19:28.621Z,22.20
2023-01-29T15:24:22.918Z,22.70
2023-01-29T15:27:22.803Z,22.70
2023-01-29T15:29:26.069Z,22.40
2023-01-29T15:34:23.167Z,21.80
2023-01-29T15:39:24.271Z,22.00
2023-01-29T15:40:14.583Z,22.00
2023-01-29T15:42:48.752Z,22.00
2023-01-29T15:44:22.988Z,20.20
2023-01-29T15:48:28.720Z,20.70
2023-01-29T15:49:28.691Z,20.70
2023-01-29T15:54:23.894Z,20.50
2023-01-29T15:59:25.412Z,18.30
2023-01-29T16:01:37.820Z,18.30
2023-01-29T16:04:27.825Z,18.30
2023-01-29T16:04:42.140Z,18.30
2023-01-29T16:07:56.992Z,17.90
2023-01-29T16:09:25.489Z,17.90
2023-01-29T16:09:39.257Z,17.90
2023-01-29T16:13:18.976Z,20.20
2023-01-29T16:14:24.663Z,20.20
2023-01-29T16:19:25.536Z,20.00
2023-01-29T16:23:30.311Z,21.30
2023-01-29T16:24:23.991Z,21.30
2023-01-29T16:29:27.842Z,23.60
2023-01-29T16:34:25.766Z,24.40
2023-01-29T16:39:26.267Z,29.00
2023-01-29T16:41:35.666Z,29.00
2023-01-29T16:44:32.282Z,26.30
2023-01-29T16:49:42.580Z,25.90
2023-01-29T16:49:52.579Z,25.90
2023-01-29T16:49:54.899Z,25.90
2023-01-29T16:52:15.423Z,25.90
2023-01-29T16:54:24.480Z,28.60
2023-01-29T16:59:31.267Z,27.70
2023-01-29T17:04:23.190Z,25.90
2023-01-29T17:09:26.927Z,26.10
2023-01-29T17:14:24.908Z,27.80
2023-01-29T17:19:24.441Z,29.90
2023-01-29T17:21:45.765Z,29.90
2023-01-29T17:24:22.923Z,26.70
2023-01-29T17:29:28.064Z,27.40
2023-01-29T17:32:57.652Z,29.20
2023-01-29T17:34:23.133Z,29.20
2023-01-29T17:34:30.457Z,29.20
2023-01-29T17:39:24.736Z,27.80
2023-01-29T17:44:25.291Z,26.30
2023-01-29T17:49:24.774Z,26.80
2023-01-29T17:51:23.406Z,26.80
2023-01-29T17:54:24.615Z,26.60
2023-01-29T17:59:22.528Z,27.60
2023-01-29T17:59:27.465Z,27.60
2023-01-29T18:04:22.823Z,27.10
2023-01-29T18:09:23.694Z,25.60
2023-01-29T18:11:53.018Z,26.70
2023-01-29T18:13:54.208Z,26.70
2023-01-29T18:14:22.816Z,26.70
2023-01-29T18:19:26.375Z,25.40
2023-01-29T18:24:25.422Z,25.40
2023-01-29T18:29:28.454Z,25.90
2023-01-29T18:30:53.871Z,25.90
2023-01-29T18:34:22.658Z,26.00
2023-01-29T18:39:22.794Z,24.00
2023-01-29T18:44:22.671Z,27.00
2023-01-29T18:49:22.654Z,26.10
2023-01-29T18:54:23.086Z,26.20
2023-01-29T18:58:29.008Z,25.50
2023-01-29T18:59:05.593Z,25.50
2023-01-29T18:59:22.612Z,25.50
2023-01-29T19:04:22.718Z,24.90
2023-01-29T19:09:22.904Z,24.20
2023-01-29T19:14:22.602Z,25.80
2023-01-29T19:19:22.872Z,24.70
2023-01-29T19:24:23.367Z,26.70
2023-01-29T19:29:22.686Z,27.10
2023-01-29T19:31:33.894Z,30.70
2023-01-29T19:33:11.700Z,30.70
2023-01-29T19:34:23.145Z,30.70
2023-01-29T19:34:29.185Z,30.70
2023-01-29T19:39:22.862Z,27.40
2023-01-29T19:44:22.548Z,25.90
2023-01-29T19:45:49.856Z,25.90
2023-01-29T19:49:22.604Z,27.90
2023-01-29T19:51:09.302Z,26.20
2023-01-29T19:54:22.510Z,26.20
2023-01-29T19:55:03.349Z,26.20
2023-01-29T19:59:22.871Z,28.00
2023-01-29T20:04:22.828Z,27.00
2023-01-29T20:09:22.614Z,30.00
2023-01-29T20:14:22.547Z,28.00
2023-01-29T20:19:22.658Z,29.30
2023-01-29T20:22:28.840Z,27.20
2023-01-29T20:24:23.327Z,27.20
2023-01-29T20:26:47.737Z,28.20
2023-01-29T20:29:22.609Z,28.20
2023-01-29T20:34:24.646Z,26.20
2023-01-29T20:39:22.880Z,27.70
2023-01-29T20:44:22.762Z,28.20
2023-01-29T20:49:22.892Z,27.90
2023-01-29T20:54:22.740Z,27.30
2023-01-29T20:59:23.318Z,27.40
2023-01-29T21:04:22.778Z,23.40
2023-01-29T21:09:22.991Z,26.50
2023-01-29T21:14:22.649Z,22.60
2023-01-29T21:19:23.179Z,24.90
2023-01-29T21:24:22.532Z,23.80
2023-01-29T21:29:22.567Z,22.50
2023-01-29T21:34:23.103Z,22.50
2023-01-29T21:35:25.199Z,24.10
2023-01-29T21:39:23.818Z,24.10
2023-01-29T21:44:22.452Z,22.70
2023-01-29T21:49:23.481Z,22.20
2023-01-29T21:51:33.235Z,23.60
2023-01-29T21:54:22.489Z,23.60
2023-01-29T21:59:03.554Z,23.00
2023-01-29T21:59:23.077Z,23.00
2023-01-29T22:04:22.875Z,22.50
2023-01-29T22:09:22.510Z,23.60
2023-01-29T22:14:22.494Z,24.20
2023-01-29T22:19:24.240Z,23.90
2023-01-29T22:24:22.620Z,25.40
2023-01-29T22:29:22.627Z,24.60
2023-01-29T22:34:22.941Z,24.90
2023-01-29T22:38:34.390Z,23.70
2023-01-29T22:39:24.915Z,23.70
2023-01-29T22:41:18.416Z,24.50
2023-01-29T22:44:22.409Z,24.50
2023-01-29T22:47:50.655Z,25.20
2023-01-29T22:49:24.183Z,25.20
2023-01-29T22:50:52.687Z,23.40
2023-01-29T22:53:21.566Z,23.40
2023-01-29T22:54:22.380Z,23.40
2023-01-29T22:54:35.635Z,24.20
2023-01-29T22:59:22.721Z,24.20
2023-01-29T23:04:22.584Z,24.10
2023-01-29T23:09:22.870Z,24.10
2023-01-29T23:09:45.477Z,23.30
2023-01-29T23:12:07.135Z,23.30
2023-01-29T23:14:22.921Z,24.10
2023-01-29T23:16:43.749Z,24.10
2023-01-29T23:19:22.479Z,24.10
2023-01-29T23:24:22.836Z,25.20
2023-01-29T23:29:22.420Z,23.60
2023-01-29T23:34:22.555Z,23.00
2023-01-29T23:38:57.699Z,23.00
2023-01-29T23:39:22.622Z,23.30
2023-01-29T23:40:57.166Z,23.30
2023-01-29T23:44:22.570Z,23.10
2023-01-29T23:49:22.809Z,22.70
2023-01-29T23:54:22.493Z,21.90
2023-01-29T23:59:22.369Z,21.30
